Time;durP1;ratioP1;P1;durP2;ratioP2;P2;SDS_P1;SDS_P2;PMS_P1;PMS_P2;Temp;Humidity;BMP_temperature;BMP_pressure;BME280_temperature;BME280_humidity;BME280_pressure;Samples;Min_cycle;Max_cycle;Signal;HPM_P1;HPM_P2
2024/01/19 00:01:18;;;;;;;32.65;8.85;;;;;;;6.89;100.00;99150.16;5069810;28;20052;-70
2024/01/19 00:03:44;;;;;;;70.78;10.45;;;;;;;6.86;100.00;99146.09;5069035;28;20514;-70
2024/01/19 00:06:10;;;;;;;46.53;10.20;;;;;;;6.84;100.00;99148.03;5067589;28;20033;-70
2024/01/19 00:08:35;;;;;;;51.60;9.75;;;;;;;6.81;100.00;99145.75;5070232;28;20543;-70
2024/01/19 00:11:01;;;;;;;36.95;10.65;;;;;;;6.82;100.00;99139.59;5071194;28;20032;-70
2024/01/19 00:13:26;;;;;;;37.05;10.70;;;;;;;6.86;100.00;99148.69;5065394;28;20070;-70
2024/01/19 00:15:52;;;;;;;33.28;10.45;;;;;;;6.86;100.00;99146.09;5070298;28;20047;-70
2024/01/19 00:18:18;;;;;;;41.63;10.98;;;;;;;6.87;100.00;99141.75;5067884;28;20097;-70
2024/01/19 00:20:43;;;;;;;32.05;11.02;;;;;;;6.86;100.00;99140.13;5067618;28;20458;-70
2024/01/19 00:23:09;;;;;;;35.67;11.50;;;;;;;6.86;100.00;99140.94;5070167;28;20135;-70
2024/01/19 00:25:34;;;;;;;32.35;10.20;;;;;;;6.86;100.00;99130.56;5066791;28;20024;-70
2024/01/19 00:28:00;;;;;;;38.17;10.55;;;;;;;6.84;100.00;99132.50;5068460;28;20036;-70
2024/01/19 00:30:25;;;;;;;32.13;9.70;;;;;;;6.79;100.00;99124.38;5067809;28;20093;-70
2024/01/19 00:32:51;;;;;;;23.00;9.25;;;;;;;6.81;100.00;99130.22;5069597;28;20029;-70
2024/01/19 00:35:16;;;;;;;31.23;9.43;;;;;;;6.78;100.00;99127.94;5064234;28;20055;-70
2024/01/19 00:37:41;;;;;;;30.90;11.38;;;;;;;6.78;100.00;99117.56;5068023;28;20056;-70
2024/01/19 00:40:11;;;;;;;32.90;8.77;;;;;;;6.76;100.00;99103.97;5072374;28;20031;-70
2024/01/19 00:42:41;;;;;;;28.00;10.48;;;;;;;6.77;100.00;99113.38;5071624;28;20037;-70
2024/01/19 00:45:09;;;;;;;23.27;8.77;;;;;;;6.82;100.00;99112.91;5078362;28;20076;-70
2024/01/19 00:47:35;;;;;;;25.52;9.20;;;;;;;6.81;100.00;99111.28;5079400;28;20032;-70
2024/01/19 00:50:01;;;;;;;21.98;8.10;;;;;;;6.80;100.00;99107.06;5072462;28;20043;-70
2024/01/19 00:52:27;;;;;;;19.90;8.20;;;;;;;6.84;100.00;99116.97;5074280;28;20056;-70
2024/01/19 00:54:52;;;;;;;20.83;8.23;;;;;;;6.85;100.00;99113.41;5071958;28;20075;-70
2024/01/19 00:57:18;;;;;;;26.63;9.38;;;;;;;6.86;100.00;99117.63;5073974;28;20106;-70
2024/01/19 00:59:43;;;;;;;19.58;8.23;;;;;;;6.84;100.00;99109.19;5072281;28;20082;-70
2024/01/19 01:02:09;;;;;;;21.63;8.13;;;;;;;6.83;100.00;99114.53;5072511;28;20052;-70
2024/01/19 01:04:34;;;;;;;26.17;7.85;;;;;;;6.80;100.00;99118.25;5073312;28;20025;-70
2024/01/19 01:07:00;;;;;;;25.50;9.68;;;;;;;6.82;100.00;99120.69;5075472;28;20485;-70
2024/01/19 01:09:25;;;;;;;29.02;9.20;;;;;;;6.81;100.00;99126.81;5074468;28;20036;-70
2024/01/19 01:11:50;;;;;;;28.98;9.77;;;;;;;6.81;100.00;99125.03;5064880;28;20035;-70
2024/01/19 01:14:16;;;;;;;26.90;9.40;;;;;;;6.83;100.00;99130.06;5077070;28;20025;-70
2024/01/19 01:16:41;;;;;;;38.10;9.55;;;;;;;6.84;100.00;99139.47;5070854;28;20029;-70
2024/01/19 01:19:08;;;;;;;31.08;9.40;;;;;;;6.85;100.00;99149.66;5072294;28;20104;-70
2024/01/19 01:21:33;;;;;;;27.33;8.77;;;;;;;6.85;100.00;99149.66;5068380;28;20086;-70
2024/01/19 01:23:59;;;;;;;25.85;8.60;;;;;;;6.86;100.00;99143.53;5078410;28;20124;-70
2024/01/19 01:26:25;;;;;;;31.05;8.18;;;;;;;6.84;100.00;99137.69;5074162;28;20044;-70
2024/01/19 01:28:51;;;;;;;24.45;8.45;;;;;;;6.79;100.00;99145.09;5077814;28;20432;-69
2024/01/19 01:31:16;;;;;;;27.73;9.85;;;;;;;6.83;100.00;99135.25;5077016;28;20859;-70
2024/01/19 01:33:42;;;;;;;29.73;9.23;;;;;;;6.87;100.00;99142.56;5069679;28;20036;-70
2024/01/19 01:36:07;;;;;;;26.25;9.43;;;;;;;6.92;100.00;99145.50;5073129;28;20135;-70
2024/01/19 01:38:33;;;;;;;22.75;10.20;;;;;;;6.92;100.00;99139.50;5069775;28;20044;-70
2024/01/19 01:40:58;;;;;;;26.23;8.30;;;;;;;6.92;100.00;99149.88;5077125;28;20024;-70
2024/01/19 01:43:25;;;;;;;25.67;8.10;;;;;;;6.88;100.00;99149.34;5069101;28;20036;-70
2024/01/19 01:45:51;;;;;;;22.15;7.95;;;;;;;6.86;100.00;99151.28;5071420;28;20078;-70
2024/01/19 01:48:23;;;;;;;26.77;9.02;;;;;;;6.85;100.00;99148.84;5069622;28;20048;-70
2024/01/19 01:50:49;;;;;;;23.60;8.38;;;;;;;6.84;100.00;99147.22;5069861;28;20025;-70
2024/01/19 01:53:18;;;;;;;26.08;9.20;;;;;;;6.87;100.00;99141.75;5073124;28;20036;-70
2024/01/19 01:55:44;;;;;;;22.15;9.32;;;;;;;6.93;100.00;99141.13;5075616;28;20052;-70
2024/01/19 01:58:10;;;;;;;31.20;9.60;;;;;;;7.03;100.00;99146.22;5071012;28;20106;-70
2024/01/19 02:00:36;;;;;;;24.25;9.68;;;;;;;7.07;100.00;99147.53;5070977;28;20043;-70
2024/01/19 02:03:02;;;;;;;24.17;9.20;;;;;;;7.11;100.00;99156.59;5072326;28;20028;-70
2024/01/19 02:05:28;;;;;;;28.90;7.82;;;;;;;7.07;100.00;99152.72;5068592;28;20044;-69
2024/01/19 02:07:53;;;;;;;26.35;8.75;;;;;;;7.02;100.00;99154.94;5070409;28;20035;-70
2024/01/19 02:11:02;;;;;;;33.80;7.72;;;;;;;6.93;100.00;99151.50;5070038;28;20024;-70
2024/01/19 02:13:28;;;;;;;21.42;8.05;;;;;;;6.90;100.00;99149.22;5068705;28;20122;-70
2024/01/19 02:15:55;;;;;;;18.02;7.47;;;;;;;6.90;100.00;99142.25;5072510;28;20106;-70
2024/01/19 02:18:20;;;;;;;26.75;8.68;;;;;;;6.93;100.00;99136.78;5070370;28;20043;-70
2024/01/19 02:20:45;;;;;;;23.27;8.27;;;;;;;6.92;100.00;99134.34;5077261;28;20131;-70
2024/01/19 02:23:13;;;;;;;22.20;8.35;;;;;;;6.91;100.00;99130.13;5068849;28;20024;-70
2024/01/19 02:25:39;;;;;;;15.95;7.68;;;;;;;6.90;100.00;99126.72;5069041;28;20397;-70
2024/01/19 02:28:05;;;;;;;23.40;8.13;;;;;;;6.94;100.00;99128.03;5072578;28;20078;-70
2024/01/19 02:30:31;;;;;;;16.38;7.40;;;;;;;6.90;100.00;99120.72;5078670;28;20032;-70
2024/01/19 02:32:57;;;;;;;22.80;7.97;;;;;;;6.86;100.00;99130.56;5074705;28;20039;-70
2024/01/19 02:35:22;;;;;;;26.67;6.13;;;;;;;6.85;100.00;99126.38;5070758;28;20135;-70
2024/01/19 02:37:47;;;;;;;29.88;6.60;;;;;;;6.83;100.00;99117.94;5068836;28;20097;-70
2024/01/19 02:40:13;;;;;;;28.90;7.78;;;;;;;6.81;100.00;99112.09;5071353;28;20507;-70
2024/01/19 02:42:38;;;;;;;26.83;7.43;;;;;;;6.81;100.00;99112.09;5076418;28;20048;-69
2024/01/19 02:45:04;;;;;;;25.42;6.65;;;;;;;6.80;100.00;99118.25;5070851;28;20047;-70
2024/01/19 02:47:30;;;;;;;14.20;6.45;;;;;;;6.85;100.00;99117.78;5072936;28;20478;-70
2024/01/19 02:49:55;;;;;;;18.85;6.93;;;;;;;6.88;100.00;99117.47;5069640;28;20072;-70
2024/01/19 02:52:21;;;;;;;17.73;6.55;;;;;;;6.85;100.00;99112.59;5074364;28;20111;-70
2024/01/19 02:54:47;;;;;;;16.30;6.85;;;;;;;6.84;100.00;99116.16;5067957;28;20024;-70
2024/01/19 02:57:12;;;;;;;13.45;5.65;;;;;;;6.85;100.00;99118.59;5071328;28;20051;-70
2024/01/19 02:59:38;;;;;;;12.18;5.13;;;;;;;6.87;100.00;99126.22;5069830;28;20032;-70
2024/01/19 03:02:03;;;;;;;12.18;5.10;;;;;;;6.87;100.00;99127.03;5073322;28;20535;-70
2024/01/19 03:04:29;;;;;;;19.27;5.70;;;;;;;6.85;100.00;99122.97;5075993;28;20119;-70
2024/01/19 03:06:55;;;;;;;13.73;5.32;;;;;;;6.83;100.00;99123.13;5069847;28;20043;-70
2024/01/19 03:09:20;;;;;;;13.80;6.40;;;;;;;6.86;100.00;99133.16;5076044;28;20029;-70
2024/01/19 03:11:46;;;;;;;21.27;6.10;;;;;;;6.86;100.00;99132.34;5071854;28;20027;-70
2024/01/19 03:14:11;;;;;;;14.18;5.57;;;;;;;6.84;100.00;99136.88;5080637;28;20028;-70
2024/01/19 03:16:43;;;;;;;15.98;5.80;;;;;;;6.83;100.00;99141.22;5071302;28;20478;-70
2024/01/19 03:19:09;;;;;;;12.65;4.75;;;;;;;6.84;100.00;99153.22;5072225;28;20040;-70
2024/01/19 03:21:34;;;;;;;15.07;5.20;;;;;;;6.85;100.00;99152.25;5067105;28;20434;-70
2024/01/19 03:24:00;;;;;;;25.52;4.90;;;;;;;6.87;100.00;99160.69;5071681;28;20081;-70
2024/01/19 03:26:25;;;;;;;17.73;5.57;;;;;;;6.88;100.00;99159.72;5071595;28;20489;-70
2024/01/19 03:28:51;;;;;;;17.77;6.40;;;;;;;6.90;100.00;99150.03;5069341;28;20029;-70
2024/01/19 03:31:16;;;;;;;14.52;6.45;;;;;;;6.89;100.00;99145.81;5074376;28;20040;-70
2024/01/19 03:33:42;;;;;;;20.85;5.72;;;;;;;6.92;100.00;99158.44;5068916;28;20027;-70
2024/01/19 03:36:07;;;;;;;21.48;6.03;;;;;;;6.92;100.00;99161.03;5070684;28;20045;-70
2024/01/19 03:38:33;;;;;;;13.70;6.28;;;;;;;6.94;100.00;99156.53;5067321;28;20043;-70
2024/01/19 03:41:00;;;;;;;16.70;6.40;;;;;;;6.93;100.00;99152.31;5069553;28;20028;-70
2024/01/19 03:43:26;;;;;;;17.85;5.57;;;;;;;6.93;100.00;99149.72;5070349;28;20024;-70
2024/01/19 03:45:51;;;;;;;23.90;6.25;;;;;;;6.91;100.00;99148.25;5070476;28;20131;-70
2024/01/19 03:48:18;;;;;;;16.25;6.38;;;;;;;6.90;100.00;99147.44;5069282;28;20034;-70
2024/01/19 03:50:43;;;;;;;15.05;5.55;;;;;;;6.97;100.00;99152.81;5070458;28;20033;-70
2024/01/19 03:53:10;;;;;;;13.00;5.90;;;;;;;6.99;100.00;99151.69;5073188;28;20043;-70
2024/01/19 03:55:36;;;;;;;19.05;6.07;;;;;;;6.99;100.00;99141.34;5069258;28;20521;-70
2024/01/19 03:58:02;;;;;;;14.07;6.18;;;;;;;7.01;100.00;99148.94;5074362;28;20032;-70
2024/01/19 04:00:27;;;;;;;17.23;5.60;;;;;;;7.05;100.00;99162.41;5072578;28;20033;-70
2024/01/19 04:02:52;;;;;;;17.25;5.15;;;;;;;7.03;100.00;99161.75;5072147;28;20090;-70
2024/01/19 04:05:18;;;;;;;31.88;6.05;;;;;;;7.00;100.00;99162.88;5071221;28;20503;-70
2024/01/19 04:07:43;;;;;;;19.42;5.85;;;;;;;6.98;100.00;99163.03;5070867;28;20199;-70
2024/01/19 04:10:09;;;;;;;42.22;5.43;;;;;;;6.98;100.00;99162.22;5069579;28;20052;-70
2024/01/19 04:12:34;;;;;;;39.38;5.25;;;;;;;6.96;100.00;99159.78;5068560;28;20090;-71
2024/01/19 04:15:00;;;;;;;18.92;5.22;;;;;;;6.95;100.00;99165.91;5070887;28;20435;-70
2024/01/19 04:17:26;;;;;;;37.08;4.82;;;;;;;6.97;100.00;99169.16;5069826;28;20040;-70
2024/01/19 04:19:52;;;;;;;20.92;4.65;;;;;;;6.98;100.00;99168.19;5072593;28;20481;-71
2024/01/19 04:22:17;;;;;;;15.15;5.72;;;;;;;7.01;100.00;99167.09;5066895;28;20103;-70
2024/01/19 04:24:43;;;;;;;13.82;4.32;;;;;;;7.04;100.00;99171.16;5073019;28;20032;-70
2024/01/19 04:27:08;;;;;;;13.93;5.22;;;;;;;7.02;100.00;99165.31;5068106;28;20041;-70
2024/01/19 04:29:33;;;;;;;10.25;4.55;;;;;;;7.06;100.00;99167.44;5073594;28;20036;-70
2024/01/19 04:31:59;;;;;;;12.40;4.43;;;;;;;7.07;100.00;99171.66;5067631;28;20028;-70
2024/01/19 04:34:24;;;;;;;11.82;4.05;;;;;;;7.07;100.00;99169.06;5068478;28;20107;-69
2024/01/19 04:36:50;;;;;;;16.52;4.70;;;;;;;7.06;100.00;99169.22;5068607;28;20104;-70
2024/01/19 04:39:16;;;;;;;16.58;4.95;;;;;;;7.05;100.00;99180.53;5067649;28;20029;-70
2024/01/19 04:41:42;;;;;;;30.52;4.72;;;;;;;7.03;100.00;99187.66;5068214;28;20094;-70
2024/01/19 04:44:07;;;;;;;12.93;3.80;;;;;;;7.03;100.00;99192.81;5068188;28;20028;-70
2024/01/19 04:46:32;;;;;;;42.60;4.88;;;;;;;7.02;100.00;99197.19;5069358;28;20044;-70
2024/01/19 04:48:58;;;;;;;11.60;4.38;;;;;;;7.00;100.00;99193.94;5071322;28;20027;-70
2024/01/19 04:51:23;;;;;;;8.00;4.45;;;;;;;7.02;100.00;99193.78;5070544;28;20036;-70
2024/01/19 04:53:49;;;;;;;15.50;4.53;;;;;;;7.03;100.00;99195.41;5069466;28;20462;-70
2024/01/19 04:56:14;;;;;;;18.63;5.10;;;;;;;7.02;100.00;99201.56;5067838;28;20052;-70
2024/01/19 04:58:40;;;;;;;9.30;3.95;;;;;;;7.02;100.00;99191.19;5069222;28;20036;-70
2024/01/19 05:01:05;;;;;;;12.50;4.93;;;;;;;7.06;100.00;99192.53;5072323;28;20028;-70
2024/01/19 05:03:31;;;;;;;10.73;4.53;;;;;;;7.08;100.00;99196.59;5070706;28;20029;-70
2024/01/19 05:05:56;;;;;;;12.35;4.35;;;;;;;7.06;100.00;99192.53;5073405;28;20051;-70
2024/01/19 05:08:22;;;;;;;14.07;4.45;;;;;;;7.06;100.00;99193.34;5067766;28;20402;-70
2024/01/19 05:10:47;;;;;;;16.40;3.83;;;;;;;7.07;100.00;99200.13;5065952;28;20033;-70
2024/01/19 05:13:13;;;;;;;25.80;4.10;;;;;;;7.05;100.00;99204.66;5068506;28;20126;-70
2024/01/19 05:15:39;;;;;;;42.50;4.82;;;;;;;7.04;100.00;99204.81;5068709;28;20036;-70
2024/01/19 05:18:04;;;;;;;15.45;5.20;;;;;;;7.03;100.00;99221.31;5073071;28;20140;-70
2024/01/19 05:20:30;;;;;;;11.10;3.88;;;;;;;7.03;100.00;99226.50;5068442;28;20435;-70
2024/01/19 05:22:55;;;;;;;10.23;4.22;;;;;;;7.05;100.00;99227.16;5070701;28;20028;-70
2024/01/19 05:25:21;;;;;;;10.80;3.25;;;;;;;7.05;100.00;99222.78;5071502;28;20036;-70
2024/01/19 05:27:53;;;;;;;11.48;4.20;;;;;;;7.03;100.00;99226.50;5072029;28;20020;-70
2024/01/19 05:30:23;;;;;;;10.15;3.97;;;;;;;7.06;100.00;99223.59;5071030;28;20035;-70
2024/01/19 05:32:49;;;;;;;15.35;3.80;;;;;;;7.07;100.00;99225.22;5072489;28;20024;-71
2024/01/19 05:35:14;;;;;;;13.38;2.83;;;;;;;7.06;100.00;99229.59;5072557;28;20063;-71
2024/01/19 05:37:40;;;;;;;9.80;4.03;;;;;;;7.03;100.00;99232.47;5070951;28;20039;-71
2024/01/19 05:40:06;;;;;;;5.10;3.22;;;;;;;7.04;100.00;99236.69;5073829;28;20229;-71
2024/01/19 05:42:32;;;;;;;9.05;4.03;;;;;;;7.08;100.00;99235.44;5071276;28;20047;-70
2024/01/19 05:44:57;;;;;;;8.43;3.47;;;;;;;7.10;100.00;99245.63;5071395;28;20037;-71
2024/01/19 05:47:22;;;;;;;8.10;4.15;;;;;;;7.14;100.00;99236.56;5074495;28;20044;-70
2024/01/19 05:49:48;;;;;;;8.45;3.78;;;;;;;7.13;100.00;99248.72;5072707;28;20094;-70
2024/01/19 05:52:13;;;;;;;15.00;2.90;;;;;;;7.11;100.00;99258.41;5075623;28;20048;-70
2024/01/19 05:54:39;;;;;;;10.80;3.53;;;;;;;7.12;100.00;99254.84;5070145;28;20032;-70
2024/01/19 05:57:05;;;;;;;5.72;2.53;;;;;;;7.10;100.00;99258.56;5067937;28;20134;-70
2024/01/19 05:59:30;;;;;;;6.85;3.20;;;;;;;7.12;100.00;99260.03;5071307;28;20059;-70
2024/01/19 06:01:55;;;;;;;8.40;2.83;;;;;;;7.14;100.00;99262.47;5070995;28;20032;-71
2024/01/19 06:04:22;;;;;;;10.43;3.42;;;;;;;7.15;100.00;99262.31;5071573;28;20166;-70
2024/01/19 06:06:47;;;;;;;7.90;3.50;;;;;;;7.15;100.00;99258.94;5071691;28;20051;-71
2024/01/19 06:09:13;;;;;;;5.78;3.10;;;;;;;7.15;100.00;99259.75;5071430;28;20028;-70
2024/01/19 06:11:39;;;;;;;9.40;3.20;;;;;;;7.16;100.00;99265.72;5070309;28;20544;-71
2024/01/19 06:14:04;;;;;;;9.20;3.25;;;;;;;7.15;100.00;99269.28;5071231;28;20386;-70
2024/01/19 06:16:30;;;;;;;8.85;3.38;;;;;;;7.14;100.00;99271.06;5071095;28;20374;-70
2024/01/19 06:18:57;;;;;;;9.68;3.85;;;;;;;7.13;100.00;99271.22;5070958;28;20070;-70
2024/01/19 06:21:22;;;;;;;7.35;3.90;;;;;;;7.12;100.00;99279.94;5070204;28;20033;-70
2024/01/19 06:23:48;;;;;;;9.00;3.15;;;;;;;7.11;100.00;99273.94;5070682;28;20051;-70
2024/01/19 06:26:13;;;;;;;8.52;4.68;;;;;;;7.13;100.00;99286.75;5063440;28;20596;-70
2024/01/19 06:28:40;;;;;;;9.02;3.25;;;;;;;7.16;100.00;99312.34;5070461;28;20103;-70
2024/01/19 06:31:07;;;;;;;6.68;3.63;;;;;;;7.16;100.00;99327.91;5069920;28;20087;-70
2024/01/19 06:33:33;;;;;;;28.15;3.55;;;;;;;7.16;100.00;99339.06;5066395;28;20020;-70
2024/01/19 06:35:58;;;;;;;6.28;2.45;;;;;;;7.25;100.00;99347.72;5070126;28;20497;-72
2024/01/19 06:38:24;;;;;;;6.40;2.80;;;;;;;7.29;100.00;99343.88;5070669;28;20087;-73
2024/01/19 06:40:50;;;;;;;4.78;1.85;;;;;;;7.23;100.00;99350.47;5070501;28;20485;-72
2024/01/19 06:43:16;;;;;;;6.47;0.38;;;;;;;6.92;100.00;99351.84;5069314;28;20036;-72
2024/01/19 06:45:41;;;;;;;4.22;0.60;;;;;;;6.81;100.00;99360.63;5070348;28;20424;-72
2024/01/19 06:48:07;;;;;;;2.03;0.85;;;;;;;6.86;100.00;99361.00;5070566;28;20032;-73
2024/01/19 06:50:33;;;;;;;0.40;0.20;;;;;;;6.38;100.00;99369.06;5069403;28;20155;-72
2024/01/19 06:53:00;;;;;;;0.80;0.00;;;;;;;5.90;100.00;99371.88;5070394;28;20058;-73
2024/01/19 06:55:26;;;;;;;0.10;0.00;;;;;;;5.64;100.00;99395.72;5070085;28;20542;-72
2024/01/19 06:57:52;;;;;;;0.00;0.00;;;;;;;5.38;100.00;99436.00;5070380;28;20040;-73
2024/01/19 07:00:18;;;;;;;0.03;0.00;;;;;;;5.17;100.00;99425.81;5068359;28;20044;-73
2024/01/19 07:02:44;;;;;;;0.10;0.00;;;;;;;4.98;100.00;99433.53;5070276;28;20082;-72
2024/01/19 07:05:10;;;;;;;0.00;0.00;;;;;;;4.81;100.00;99458.22;5070217;28;20040;-73
2024/01/19 07:07:35;;;;;;;0.10;0.00;;;;;;;4.69;100.00;99474.78;5070219;28;20036;-72
2024/01/19 07:10:01;;;;;;;0.00;0.00;;;;;;;4.61;100.00;99488.31;5070416;28;20089;-72
2024/01/19 07:12:26;;;;;;;0.00;0.00;;;;;;;4.52;100.00;99509.72;5069464;28;20032;-72
2024/01/19 07:14:51;;;;;;;7.13;0.00;;;;;;;4.51;100.00;99522.75;5068206;28;20367;-72
2024/01/19 07:17:17;;;;;;;0.43;0.00;;;;;;;4.54;100.00;99513.00;5069573;28;20039;-72
2024/01/19 07:19:43;;;;;;;0.45;0.00;;;;;;;4.57;100.00;99523.06;5069103;28;20080;-72
2024/01/19 07:22:08;;;;;;;0.32;0.00;;;;;;;4.24;100.00;99516.41;5069874;28;20030;-72
2024/01/19 07:24:35;;;;;;;0.00;0.00;;;;;;;3.98;100.00;99530.59;5068313;28;20020;-72
2024/01/19 07:27:03;;;;;;;0.00;0.00;;;;;;;3.82;100.00;99545.66;5070535;28;20028;-72
2024/01/19 07:29:29;;;;;;;6.20;0.08;;;;;;;3.80;100.00;99553.50;5069446;28;20028;-72
2024/01/19 07:31:55;;;;;;;0.00;0.00;;;;;;;3.87;100.00;99577.84;5070701;28;20029;-73
2024/01/19 07:34:20;;;;;;;0.95;0.00;;;;;;;3.93;100.00;99585.09;5069907;28;20039;-72
2024/01/19 07:36:46;;;;;;;0.00;0.00;;;;;;;4.00;100.00;99575.09;5069155;28;20151;-73
2024/01/19 07:39:11;;;;;;;0.00;0.00;;;;;;;3.97;100.00;99589.06;5069160;28;20036;-73
2024/01/19 07:41:37;;;;;;;0.00;0.00;;;;;;;3.99;100.00;99601.81;5069373;28;20117;-73
2024/01/19 07:44:02;;;;;;;0.05;0.00;;;;;;;3.96;100.00;99623.50;5067960;28;20017;-74
2024/01/19 07:46:28;;;;;;;0.00;0.00;;;;;;;4.04;100.00;99607.44;5069020;28;20055;-74
2024/01/19 07:48:53;;;;;;;0.00;0.00;;;;;;;3.84;100.00;99613.34;5067830;28;20047;-72
2024/01/19 07:51:19;;;;;;;0.00;0.00;;;;;;;3.71;100.00;99615.28;5069468;28;20024;-72
2024/01/19 07:53:45;;;;;;;0.10;0.00;;;;;;;3.72;100.00;99622.06;5068438;28;20028;-72
2024/01/19 07:56:10;;;;;;;0.20;0.00;;;;;;;3.79;100.00;99638.66;5069254;28;20135;-72
2024/01/19 07:58:36;;;;;;;0.00;0.00;;;;;;;3.81;100.00;99626.47;5068573;28;20032;-72
2024/01/19 08:01:02;;;;;;;0.63;0.00;;;;;;;3.79;100.00;99631.75;5069657;28;20477;-72
2024/01/19 08:03:28;;;;;;;0.08;0.00;;;;;;;3.83;100.00;99648.59;5068181;28;20453;-72
2024/01/19 08:05:53;;;;;;;0.25;0.00;;;;;;;3.73;100.00;99634.03;5069863;28;20036;-71
2024/01/19 08:08:19;;;;;;;0.30;0.00;;;;;;;3.64;100.00;99644.09;5069513;28;20464;-71
2024/01/19 08:10:44;;;;;;;0.30;0.00;;;;;;;3.55;100.00;99662.84;5066687;28;20033;-71
2024/01/19 08:13:12;;;;;;;0.35;0.00;;;;;;;3.51;100.00;99656.28;5064977;28;20024;-71
2024/01/19 08:15:37;;;;;;;0.10;0.00;;;;;;;3.53;100.00;99672.44;5066614;28;20040;-72
2024/01/19 08:18:04;;;;;;;1.60;0.30;;;;;;;3.64;100.00;99669.03;5069736;28;20028;-71
2024/01/19 08:20:31;;;;;;;0.32;0.10;;;;;;;3.56;100.00;99687.66;5068380;28;20024;-72
2024/01/19 08:22:57;;;;;;;0.20;0.00;;;;;;;3.48;100.00;99687.44;5067980;28;20170;-72
2024/01/19 08:25:23;;;;;;;0.55;0.00;;;;;;;3.47;100.00;99693.53;5068219;28;20572;-71
2024/01/19 08:27:49;;;;;;;5.50;0.10;;;;;;;3.36;100.00;99714.13;5066615;28;20219;-72
2024/01/19 08:30:19;;;;;;;0.00;0.00;;;;;;;3.38;100.00;99739.75;5069284;28;20028;-73
2024/01/19 08:32:45;;;;;;;0.28;0.00;;;;;;;3.29;100.00;99746.44;5066593;28;20355;-72
2024/01/19 08:35:11;;;;;;;0.93;0.00;;;;;;;3.28;100.00;99761.06;5068191;28;20131;-72
2024/01/19 08:37:38;;;;;;;0.00;0.00;;;;;;;3.16;100.00;99774.84;5069078;28;20454;-72
2024/01/19 08:40:07;;;;;;;0.43;0.10;;;;;;;3.07;100.00;99810.75;5069553;28;20044;-72
2024/01/19 08:42:33;;;;;;;0.25;0.10;;;;;;;3.08;100.00;99820.94;5068203;28;20119;-72
2024/01/19 08:44:58;;;;;;;0.30;0.00;;;;;;;3.07;100.00;99814.13;5067297;28;20082;-73
2024/01/19 08:47:25;;;;;;;0.00;0.00;;;;;;;2.98;100.00;99814.81;5069508;28;20041;-72
2024/01/19 08:49:50;;;;;;;0.00;0.00;;;;;;;2.99;100.00;99827.56;5068686;28;20028;-72
2024/01/19 08:52:15;;;;;;;0.00;0.00;;;;;;;2.86;100.00;99837.09;5068852;28;20029;-71
2024/01/19 08:54:41;;;;;;;0.00;0.00;;;;;;;2.80;100.00;99832.41;5068473;28;20393;-72
2024/01/19 08:57:06;;;;;;;0.03;0.00;;;;;;;2.74;100.00;99853.44;5068899;28;20119;-72
2024/01/19 08:59:32;;;;;;;0.00;0.00;;;;;;;2.64;100.00;99865.31;5070740;28;20036;-73
2024/01/19 09:01:57;;;;;;;0.20;0.00;;;;;;;2.43;100.00;99880.47;5073904;28;20028;-73
2024/01/19 09:04:24;;;;;;;0.00;0.00;;;;;;;2.31;100.00;99889.06;5073414;28;20067;-73
2024/01/19 09:06:49;;;;;;;0.00;0.00;;;;;;;2.24;100.00;99904.09;5072398;28;20033;-74
2024/01/19 09:09:15;;;;;;;1.00;0.00;;;;;;;2.22;100.00;99911.09;5073528;28;20055;-73
2024/01/19 09:11:41;;;;;;;0.00;0.00;;;;;;;2.18;100.00;99919.94;5071782;28;20032;-73
2024/01/19 09:14:09;;;;;;;1.23;0.00;;;;;;;2.18;100.00;99939.66;5072975;28;20051;-73
2024/01/19 09:16:35;;;;;;;0.00;0.00;;;;;;;2.24;100.00;99940.06;5071949;28;20140;-72
2024/01/19 09:19:00;;;;;;;0.00;0.00;;;;;;;2.22;100.00;99959.09;5070892;28;20106;-73
2024/01/19 09:21:26;;;;;;;0.17;0.00;;;;;;;2.21;100.00;99945.44;5068501;28;20020;-74
2024/01/19 09:23:51;;;;;;;0.10;0.00;;;;;;;2.23;100.00;99974.41;5068209;28;20032;-74
2024/01/19 09:26:18;;;;;;;0.00;0.00;;;;;;;2.20;100.00;99972.06;5072380;28;20037;-73
2024/01/19 09:28:44;;;;;;;0.60;0.00;;;;;;;2.21;100.00;99978.84;5071750;28;20032;-73
2024/01/19 09:31:09;;;;;;;0.10;0.00;;;;;;;2.14;100.00;100008.44;5072442;28;20106;-73
2024/01/19 09:33:35;;;;;;;0.03;0.00;;;;;;;2.07;100.00;100043.19;5070729;28;20036;-74
2024/01/19 09:36:00;;;;;;;0.38;0.00;;;;;;;2.13;100.00;100045.34;5071936;28;20070;-73
2024/01/19 09:38:25;;;;;;;0.00;0.00;;;;;;;2.16;100.00;100073.41;5071303;28;20032;-73
2024/01/19 09:41:01;;;;;;;0.00;0.00;;;;;;;2.17;100.00;100082.78;5071562;28;20496;-73
2024/01/19 09:43:26;;;;;;;0.73;0.00;;;;;;;2.19;100.00;100095.53;5067575;28;20101;-73
2024/01/19 09:45:54;;;;;;;0.10;0.00;;;;;;;2.08;100.00;100082.53;5071148;28;20079;-73
2024/01/19 09:48:24;;;;;;;0.00;0.00;;;;;;;1.98;100.00;100095.16;5072606;28;20037;-73
2024/01/19 09:50:53;;;;;;;0.03;0.00;;;;;;;2.05;100.00;100098.97;5071069;28;20581;-73
2024/01/19 09:53:26;;;;;;;0.00;0.00;;;;;;;2.21;100.00;100093.69;5070816;28;20033;-73
2024/01/19 09:55:51;;;;;;;1.75;0.20;;;;;;;2.26;100.00;100107.88;5069825;28;20020;-73
2024/01/19 09:58:20;;;;;;;0.00;0.00;;;;;;;2.09;100.00;100126.13;5065723;28;20055;-73
2024/01/19 10:00:48;;;;;;;0.00;0.00;;;;;;;2.11;100.00;100128.59;5071612;28;20063;-72
2024/01/19 10:03:16;;;;;;;0.20;0.00;;;;;;;2.13;100.00;100129.34;5066862;28;20124;-73
2024/01/19 10:05:43;;;;;;;0.03;0.00;;;;;;;2.10;100.00;100101.25;5070058;28;20035;-72
2024/01/19 10:08:13;;;;;;;0.47;0.00;;;;;;;2.17;100.00;100116.19;5070528;28;20032;-72
2024/01/19 10:10:42;;;;;;;0.08;0.00;;;;;;;2.14;100.00;100116.38;5070215;28;20035;-73
2024/01/19 10:13:08;;;;;;;0.20;0.03;;;;;;;2.04;100.00;100150.47;5071641;28;20028;-72
2024/01/19 10:15:34;;;;;;;0.00;0.00;;;;;;;1.91;100.00;100138.41;5070983;28;20394;-73
2024/01/19 10:18:00;;;;;;;0.00;0.00;;;;;;;1.93;100.00;100146.00;5070742;28;20033;-71
2024/01/19 10:20:26;;;;;;;0.10;0.00;;;;;;;1.87;100.00;100136.97;5071410;28;20119;-72
2024/01/19 10:22:51;;;;;;;0.00;0.00;;;;;;;1.92;100.00;100134.91;5068406;28;20032;-72
2024/01/19 10:25:18;;;;;;;0.03;0.00;;;;;;;1.98;100.00;100149.13;5071395;28;20067;-72
2024/01/19 10:27:48;;;;;;;0.70;0.00;;;;;;;2.04;100.00;100161.59;5068606;28;20056;-71
2024/01/19 10:30:29;;;;;;;0.20;0.00;;;;;;;2.13;100.00;100178.16;5071229;28;20032;-72
2024/01/19 10:33:06;;;;;;;0.00;0.00;;;;;;;2.01;100.00;100179.75;5071693;28;20115;-71
2024/01/19 10:35:32;;;;;;;0.10;0.00;;;;;;;2.05;100.00;100176.09;5070870;28;20551;-71
2024/01/19 10:38:05;;;;;;;0.10;0.00;;;;;;;2.06;100.00;100177.72;5071278;28;20124;-71
2024/01/19 10:40:33;;;;;;;0.00;0.00;;;;;;;2.06;100.00;100185.44;5071104;28;20036;-71
2024/01/19 10:42:58;;;;;;;0.10;0.00;;;;;;;1.97;100.00;100178.31;5070652;28;20031;-71
2024/01/19 10:45:29;;;;;;;0.20;0.00;;;;;;;1.97;100.00;100162.88;5071405;28;20374;-71
2024/01/19 10:47:56;;;;;;;0.65;0.00;;;;;;;2.07;100.00;100176.81;5071462;28;20037;-71
2024/01/19 10:50:26;;;;;;;0.15;0.00;;;;;;;2.14;100.00;100183.22;5071514;28;20036;-71
2024/01/19 10:52:53;;;;;;;1.48;0.00;;;;;;;2.11;100.00;100195.44;5071820;28;20132;-71
2024/01/19 10:55:27;;;;;;;0.35;0.10;;;;;;;2.13;100.00;100196.16;5071583;28;20385;-71
2024/01/19 10:57:54;;;;;;;0.10;0.00;;;;;;;2.11;100.00;100209.09;5069733;28;20032;-71
2024/01/19 11:00:24;;;;;;;0.10;0.00;;;;;;;1.97;100.00;100204.00;5077785;28;20037;-70
2024/01/19 11:02:54;;;;;;;1.20;0.08;;;;;;;1.87;100.00;100196.06;5069938;28;20043;-70
2024/01/19 11:05:20;;;;;;;0.20;0.00;;;;;;;1.91;100.00;100192.34;5070544;28;20040;-70
2024/01/19 11:07:48;;;;;;;0.43;0.00;;;;;;;1.96;100.00;100186.94;5070479;28;20063;-70
2024/01/19 11:10:14;;;;;;;0.13;0.00;;;;;;;1.83;100.00;100192.03;5070729;28;20024;-70
2024/01/19 11:12:51;;;;;;;0.20;0.05;;;;;;;1.87;100.00;100203.78;5052770;28;20078;-72
2024/01/19 11:15:26;;;;;;;0.22;0.00;;;;;;;1.83;100.00;100206.63;5070660;28;20039;-70
2024/01/19 11:17:53;;;;;;;0.10;0.00;;;;;;;1.92;100.00;100218.88;5070423;28;20115;-71
2024/01/19 11:20:22;;;;;;;0.45;0.00;;;;;;;1.95;100.00;100222.09;5069632;28;20043;-72
2024/01/19 11:22:48;;;;;;;1.27;0.00;;;;;;;1.95;100.00;100211.81;5061104;28;20123;-71